createdAt,value
2018-10-03T00:02:38.772Z,11.82
2018-10-03T00:05:45.868Z,11.82
2018-10-03T00:08:52.606Z,11.81
2018-10-03T00:12:00.121Z,11.89
2018-10-03T00:15:05.905Z,11.81
2018-10-03T00:18:12.193Z,11.68
2018-10-03T00:21:19.257Z,11.89
2018-10-03T00:24:25.282Z,11.90
2018-10-03T00:27:30.354Z,11.89
2018-10-03T00:30:37.109Z,11.86
2018-10-03T00:33:43.834Z,11.97
2018-10-03T00:36:49.819Z,12.02
2018-10-03T00:39:56.713Z,12.03
2018-10-03T00:43:04.938Z,12.16
2018-10-03T00:46:11.398Z,12.05
2018-10-03T00:49:17.389Z,11.87
2018-10-03T00:52:22.397Z,11.89
2018-10-03T00:55:28.525Z,11.94
2018-10-03T00:58:34.414Z,11.74
2018-10-03T01:01:39.411Z,11.78
2018-10-03T01:04:45.249Z,11.73
2018-10-03T01:07:51.066Z,11.79
2018-10-03T01:10:56.153Z,11.92
2018-10-03T01:14:02.045Z,11.98
2018-10-03T01:17:07.146Z,11.75
2018-10-03T01:20:12.868Z,11.97
2018-10-03T01:23:21.551Z,12.00
2018-10-03T01:26:26.559Z,12.05
2018-10-03T01:29:32.556Z,11.95
2018-10-03T01:32:37.580Z,11.93
2018-10-03T01:35:43.778Z,11.97
2018-10-03T01:38:49.774Z,12.05
2018-10-03T01:41:55.734Z,11.94
2018-10-03T01:45:01.366Z,12.02
2018-10-03T01:48:06.455Z,12.07
2018-10-03T01:51:11.597Z,12.13
2018-10-03T01:54:17.386Z,12.26
2018-10-03T01:57:25.628Z,12.30
2018-10-03T02:00:31.426Z,12.16
2018-10-03T02:03:36.458Z,12.20
2018-10-03T02:06:41.539Z,12.25
2018-10-03T02:09:47.894Z,12.15
2018-10-03T02:12:54.063Z,12.10
2018-10-03T02:15:59.248Z,12.18
2018-10-03T02:19:05.249Z,12.17
2018-10-03T02:22:11.217Z,12.02
2018-10-03T02:25:17.287Z,12.12
2018-10-03T02:28:23.885Z,12.28
2018-10-03T02:31:31.169Z,12.19
2018-10-03T02:34:49.711Z,12.28
2018-10-03T02:37:57.378Z,12.36
2018-10-03T02:41:06.991Z,12.51
2018-10-03T02:44:14.052Z,12.47
2018-10-03T02:47:26.017Z,12.26
2018-10-03T02:50:35.159Z,12.32
2018-10-03T02:53:41.810Z,12.38
2018-10-03T02:56:48.505Z,12.47
2018-10-03T02:59:55.054Z,12.46
2018-10-03T03:03:00.822Z,12.38
2018-10-03T03:06:07.074Z,12.31
2018-10-03T03:09:13.994Z,12.41
2018-10-03T03:12:20.214Z,12.37
2018-10-03T03:15:25.249Z,12.46
2018-10-03T03:18:30.277Z,12.43
2018-10-03T03:21:35.596Z,12.48
2018-10-03T03:24:40.635Z,12.53
2018-10-03T03:27:45.626Z,12.36
2018-10-03T03:30:51.467Z,12.48
2018-10-03T03:33:57.245Z,12.55
2018-10-03T03:37:03.834Z,12.55
2018-10-03T03:40:09.618Z,12.54
2018-10-03T03:43:16.634Z,12.53
2018-10-03T03:46:21.645Z,12.57
2018-10-03T03:49:28.134Z,12.62
2018-10-03T03:52:34.214Z,12.45
2018-10-03T03:55:39.193Z,12.55
2018-10-03T03:58:44.324Z,12.46
2018-10-03T04:01:50.137Z,12.38
2018-10-03T04:04:57.625Z,12.45
2018-10-03T04:08:03.320Z,12.47
2018-10-03T04:11:08.384Z,12.56
2018-10-03T04:14:14.657Z,12.45
2018-10-03T04:17:20.385Z,12.37
2018-10-03T04:20:26.171Z,12.38
2018-10-03T04:23:32.200Z,12.36
2018-10-03T04:26:39.257Z,12.47
2018-10-03T04:29:45.554Z,12.53
2018-10-03T04:32:51.377Z,12.45
2018-10-03T04:35:57.116Z,12.47
2018-10-03T04:39:04.915Z,12.51
2018-10-03T04:42:11.279Z,12.56
2018-10-03T04:45:17.021Z,12.52
2018-10-03T04:48:22.044Z,12.40
2018-10-03T04:51:27.990Z,12.55
2018-10-03T04:54:34.423Z,12.48
2018-10-03T04:57:40.724Z,12.54
2018-10-03T05:00:46.556Z,12.64
2018-10-03T05:03:52.505Z,12.56
2018-10-03T05:06:58.279Z,12.61
2018-10-03T05:10:03.402Z,12.67
2018-10-03T05:14:55.694Z,12.53
2018-10-03T05:18:01.753Z,12.68
2018-10-03T05:21:09.326Z,12.62
2018-10-03T05:24:15.438Z,12.55
2018-10-03T05:27:20.455Z,12.66
2018-10-03T05:30:26.601Z,12.76
2018-10-03T05:33:33.033Z,12.78
2018-10-03T05:36:38.870Z,12.62
2018-10-03T05:39:43.938Z,12.49
2018-10-03T05:42:50.525Z,12.64
2018-10-03T05:45:55.595Z,12.72
2018-10-03T05:49:01.426Z,12.93
2018-10-03T05:52:08.454Z,12.95
2018-10-03T05:55:13.618Z,12.81
2018-10-03T05:58:18.640Z,12.73
2018-10-03T06:01:24.832Z,12.76
2018-10-03T06:04:30.469Z,12.97
2018-10-03T06:07:36.653Z,13.06
2018-10-03T06:10:41.675Z,13.13
2018-10-03T06:13:47.506Z,13.19
2018-10-03T06:16:54.297Z,13.30
2018-10-03T06:20:00.063Z,13.37
2018-10-03T06:23:06.926Z,13.45
2018-10-03T06:26:12.018Z,13.49
2018-10-03T06:29:18.185Z,13.49
2018-10-03T06:32:23.966Z,13.56
2018-10-03T06:35:35.798Z,13.47
2018-10-03T06:38:49.010Z,13.44
2018-10-03T06:42:00.074Z,13.39
2018-10-03T06:45:08.137Z,13.37
2018-10-03T06:48:18.085Z,13.44
2018-10-03T06:51:28.927Z,13.49
2018-10-03T06:54:43.770Z,13.70
2018-10-03T06:57:54.110Z,13.61
2018-10-03T07:01:07.328Z,13.78
2018-10-03T07:04:18.913Z,13.77
2018-10-03T07:07:28.030Z,13.77
2018-10-03T07:10:38.186Z,13.85
2018-10-03T07:13:46.239Z,13.83
2018-10-03T07:17:00.803Z,13.91
2018-10-03T07:20:06.911Z,13.99
2018-10-03T07:23:12.735Z,14.04
2018-10-03T07:55:27.300Z,14.14
2018-10-03T07:58:33.530Z,14.35
2018-10-03T08:01:38.550Z,14.61
2018-10-03T08:04:43.607Z,14.85
2018-10-03T08:07:53.838Z,15.20
2018-10-03T08:10:59.943Z,15.33
2018-10-03T08:14:05.815Z,15.30
2018-10-03T08:17:10.860Z,15.45
2018-10-03T08:20:17.003Z,15.69
2018-10-03T08:23:23.594Z,16.01
2018-10-03T08:26:29.352Z,16.33
2018-10-03T08:29:42.725Z,16.54
2018-10-03T08:33:00.159Z,16.92
2018-10-03T08:36:14.169Z,17.13
2018-10-03T08:39:30.114Z,17.13
2018-10-03T08:47:58.197Z,16.44
2018-10-03T08:51:08.259Z,16.87
2018-10-03T08:54:20.274Z,17.00
2018-10-03T08:57:34.329Z,16.73
2018-10-03T09:00:44.452Z,16.53
2018-10-03T09:03:56.942Z,16.46
2018-10-03T09:07:08.517Z,16.59
2018-10-03T09:10:52.001Z,16.47
2018-10-03T09:14:02.918Z,16.48
2018-10-03T09:17:17.477Z,16.41
2018-10-03T09:20:29.771Z,16.70
2018-10-03T09:23:56.616Z,16.99
2018-10-03T09:27:09.309Z,17.21
2018-10-03T09:30:19.740Z,17.53
2018-10-03T09:33:30.963Z,17.32
2018-10-03T09:36:40.358Z,17.44
2018-10-03T09:39:59.077Z,17.71
2018-10-03T09:43:08.328Z,18.02
2018-10-03T09:46:18.725Z,17.91
2018-10-03T09:49:28.333Z,17.71
2018-10-03T09:52:40.270Z,17.82
2018-10-03T10:08:12.996Z,16.45
2018-10-03T10:11:24.720Z,16.96
2018-10-03T10:14:33.815Z,17.43
2018-10-03T10:17:43.668Z,17.18
2018-10-03T10:20:55.031Z,16.69
2018-10-03T10:24:05.775Z,16.78
2018-10-03T10:27:17.446Z,17.11
2018-10-03T10:30:27.508Z,16.94
2018-10-03T10:33:39.352Z,16.86
2018-10-03T10:36:52.652Z,16.84
2018-10-03T10:40:03.080Z,16.84
2018-10-03T10:43:16.697Z,16.82
2018-10-03T10:46:25.564Z,16.74
2018-10-03T10:49:41.757Z,17.08
2018-10-03T10:52:51.603Z,17.45
2018-10-03T10:55:59.728Z,17.74
2018-10-03T10:59:04.791Z,18.07
2018-10-03T11:02:11.008Z,18.22
2018-10-03T11:05:17.226Z,18.41
2018-10-03T11:08:30.003Z,18.18
2018-10-03T11:11:35.549Z,18.00
2018-10-03T11:14:42.157Z,17.94
2018-10-03T11:17:48.185Z,18.01
2018-10-03T11:20:53.223Z,18.10
2018-10-03T11:23:59.256Z,17.98
2018-10-03T11:27:06.194Z,17.96
2018-10-03T11:30:11.286Z,17.89
2018-10-03T11:33:17.150Z,17.86
2018-10-03T11:36:25.810Z,17.75
2018-10-03T11:39:30.861Z,17.39
2018-10-03T11:42:36.688Z,17.64
2018-10-03T11:45:44.392Z,17.63
2018-10-03T11:48:57.063Z,17.80
2018-10-03T11:52:06.939Z,18.10
2018-10-03T11:55:16.864Z,18.27
2018-10-03T11:58:27.353Z,18.17
2018-10-03T12:01:41.404Z,18.32
2018-10-03T12:04:49.945Z,18.00
2018-10-03T12:08:00.453Z,18.01
2018-10-03T12:15:02.995Z,18.98
2018-10-03T12:18:15.109Z,19.08
2018-10-03T12:21:31.718Z,19.37
2018-10-03T12:24:41.852Z,19.66
2018-10-03T12:27:50.976Z,19.97
2018-10-03T12:31:05.580Z,19.89
2018-10-03T12:34:16.107Z,19.65
2018-10-03T12:37:30.859Z,19.31
2018-10-03T12:40:40.221Z,19.44
2018-10-03T12:43:50.544Z,20.05
2018-10-03T12:46:59.404Z,19.97
2018-10-03T12:50:12.864Z,20.09
2018-10-03T12:53:24.825Z,20.16
2018-10-03T12:56:38.175Z,20.16
2018-10-03T12:59:48.052Z,19.61
2018-10-03T13:03:00.722Z,19.14
2018-10-03T13:06:12.313Z,19.25
2018-10-03T13:09:21.953Z,18.79
2018-10-03T13:12:38.626Z,18.40
2018-10-03T13:15:53.673Z,18.53
2018-10-03T13:19:00.835Z,18.45
2018-10-03T13:22:10.695Z,18.35
2018-10-03T13:25:20.465Z,18.36
2018-10-03T13:28:29.049Z,18.48
2018-10-03T13:31:44.302Z,18.45
2018-10-03T13:34:53.962Z,18.60
2018-10-03T13:38:08.995Z,18.98
2018-10-03T13:41:19.511Z,19.23
2018-10-03T13:44:30.651Z,19.58
2018-10-03T13:47:39.216Z,19.85
2018-10-03T13:50:48.319Z,19.67
2018-10-03T13:53:57.674Z,19.64
2018-10-03T13:57:10.211Z,19.75
2018-10-03T14:00:17.366Z,19.91
2018-10-03T14:03:29.007Z,19.91
2018-10-03T14:06:38.558Z,19.86
2018-10-03T14:09:48.271Z,19.70
2018-10-03T14:12:57.159Z,19.58
2018-10-03T14:16:06.596Z,19.31
2018-10-03T14:19:20.225Z,19.06
2018-10-03T14:22:29.210Z,18.68
2018-10-03T14:25:39.008Z,18.92
2018-10-03T14:28:50.230Z,19.12
2018-10-03T14:32:03.506Z,19.08
2018-10-03T14:35:18.217Z,19.23
2018-10-03T14:38:29.326Z,19.20
2018-10-03T14:41:35.826Z,19.09
2018-10-03T14:44:44.945Z,18.95
2018-10-03T14:47:50.004Z,18.75
2018-10-03T14:50:54.981Z,18.54
2018-10-03T14:54:00.314Z,18.51
2018-10-03T14:57:08.423Z,18.57
2018-10-03T15:00:15.093Z,18.47
2018-10-03T15:03:21.275Z,18.50
2018-10-03T15:06:27.209Z,18.47
2018-10-03T15:09:32.298Z,18.56
2018-10-03T15:12:37.476Z,18.61
2018-10-03T15:15:43.743Z,18.57
2018-10-03T15:18:50.038Z,18.63
2018-10-03T15:21:56.422Z,18.47
2018-10-03T15:25:02.469Z,18.42
2018-10-03T15:28:08.470Z,18.39
2018-10-03T15:31:13.703Z,18.36
2018-10-03T15:34:20.434Z,18.25
2018-10-03T15:37:27.853Z,18.19
2018-10-03T15:40:33.874Z,18.24
2018-10-03T15:43:41.445Z,18.29
2018-10-03T15:46:48.439Z,18.18
2018-10-03T15:49:57.508Z,18.09
2018-10-03T15:53:03.594Z,18.05
2018-10-03T15:56:09.933Z,17.91
2018-10-03T15:59:15.049Z,17.69
2018-10-03T16:02:21.963Z,17.70
2018-10-03T16:05:28.214Z,17.50
2018-10-03T16:08:36.959Z,17.49
2018-10-03T16:11:43.320Z,17.31
2018-10-03T16:14:56.183Z,17.26
2018-10-03T16:18:03.174Z,17.30
2018-10-03T16:21:09.220Z,17.11
2018-10-03T16:24:15.520Z,16.98
2018-10-03T16:27:21.745Z,16.77
2018-10-03T16:30:27.982Z,16.69
2018-10-03T16:33:33.717Z,16.61
2018-10-03T16:36:39.413Z,16.55
2018-10-03T16:39:44.728Z,16.44
2018-10-03T16:42:51.335Z,16.23
2018-10-03T16:45:57.037Z,16.15
2018-10-03T16:49:02.429Z,15.96
2018-10-03T16:52:08.662Z,15.73
2018-10-03T16:55:15.003Z,15.60
2018-10-03T16:58:22.369Z,15.44
2018-10-03T17:01:28.577Z,15.26
2018-10-03T17:04:35.612Z,15.10
2018-10-03T17:07:41.090Z,14.90
2018-10-03T17:10:47.594Z,14.74
2018-10-03T17:14:02.960Z,14.58
2018-10-03T17:17:09.618Z,14.31
2018-10-03T17:20:15.394Z,14.12
2018-10-03T17:23:23.766Z,14.00
2018-10-03T17:26:30.955Z,13.85
2018-10-03T17:29:36.370Z,13.71
2018-10-03T17:43:41.472Z,12.94
2018-10-03T17:47:02.735Z,12.83
2018-10-03T17:50:15.152Z,12.75
2018-10-03T17:53:25.778Z,12.66
2018-10-03T17:56:32.727Z,12.57
2018-10-03T17:59:38.908Z,12.46
2018-10-03T18:02:44.990Z,12.36
2018-10-03T18:05:50.180Z,12.28
2018-10-03T18:12:27.277Z,12.00
2018-10-03T18:15:33.446Z,11.91
2018-10-03T18:18:40.610Z,11.81
2018-10-03T18:21:45.778Z,11.73
2018-10-03T18:24:53.143Z,11.65
2018-10-03T18:28:00.211Z,11.54
2018-10-03T18:31:13.104Z,11.33
2018-10-03T18:34:18.944Z,11.20
2018-10-03T18:37:28.140Z,11.12
2018-10-03T18:40:33.975Z,10.98
2018-10-03T18:43:40.313Z,10.91
2018-10-03T18:46:47.977Z,10.77
2018-10-03T18:49:53.849Z,10.60
2018-10-03T18:53:00.495Z,10.60
2018-10-03T18:56:06.704Z,10.50
2018-10-03T18:59:12.717Z,10.34
2018-10-03T19:02:25.727Z,10.29
2018-10-03T19:05:30.983Z,10.21
2018-10-03T19:08:36.876Z,10.16
2018-10-03T19:11:42.152Z,10.07
2018-10-03T19:14:47.213Z,10.01
2018-10-03T19:17:53.488Z,9.92
2018-10-03T19:21:01.617Z,9.84
2018-10-03T19:24:08.195Z,9.78
2018-10-03T19:27:13.842Z,9.70
2018-10-03T19:30:19.155Z,9.59
2018-10-03T19:33:25.353Z,9.44
2018-10-03T19:36:32.359Z,9.40
2018-10-03T19:39:44.776Z,9.30
2018-10-03T19:42:50.975Z,9.23
2018-10-03T19:45:58.022Z,9.17
2018-10-03T19:49:05.146Z,9.13
2018-10-03T19:52:11.162Z,9.09
2018-10-03T19:55:17.160Z,9.04
2018-10-03T19:58:23.953Z,8.97
2018-10-03T20:01:29.915Z,8.87
2018-10-03T20:04:35.801Z,8.89
2018-10-03T20:07:40.923Z,8.83
2018-10-03T20:10:47.316Z,8.78
2018-10-03T20:13:53.298Z,8.72
2018-10-03T20:17:00.167Z,8.68
2018-10-03T20:20:06.085Z,8.61
2018-10-03T20:23:12.182Z,8.51
2018-10-03T20:26:19.286Z,8.49
2018-10-03T20:29:25.436Z,8.37
2018-10-03T20:32:33.917Z,8.33
2018-10-03T20:35:39.674Z,8.25
2018-10-03T20:38:44.815Z,8.22
2018-10-03T20:41:49.913Z,8.17
2018-10-03T20:44:54.916Z,8.14
2018-10-03T20:48:00.746Z,8.10
2018-10-03T20:51:06.727Z,8.06
2018-10-03T20:54:11.783Z,7.99
2018-10-03T20:57:16.929Z,7.90
2018-10-03T21:00:24.111Z,7.79
2018-10-03T21:03:31.141Z,7.84
2018-10-03T21:06:36.600Z,7.87
2018-10-03T21:09:42.975Z,7.88
2018-10-03T21:15:02.097Z,7.52
2018-10-03T21:18:08.104Z,7.55
2018-10-03T21:21:14.409Z,7.52
2018-10-03T21:24:20.682Z,7.49
2018-10-03T21:27:26.528Z,7.31
2018-10-03T21:30:32.539Z,7.30
2018-10-03T21:33:37.594Z,7.40
2018-10-03T21:36:44.504Z,7.39
2018-10-03T21:39:50.471Z,7.42
2018-10-03T21:42:55.453Z,7.37
2018-10-03T21:46:00.444Z,7.35
2018-10-03T21:49:05.621Z,7.33
2018-10-03T21:52:13.205Z,7.31
2018-10-03T21:55:19.397Z,7.26
2018-10-03T21:58:25.050Z,7.24
2018-10-03T22:01:32.603Z,7.20
2018-10-03T22:04:37.621Z,7.13
2018-10-03T22:07:43.934Z,7.10
2018-10-03T22:10:49.942Z,7.09
2018-10-03T22:13:55.015Z,7.11
2018-10-03T22:17:01.005Z,7.07
2018-10-03T22:20:07.038Z,7.04
2018-10-03T22:23:13.662Z,7.00
2018-10-03T22:26:19.366Z,6.96
2018-10-03T22:29:25.269Z,6.87
2018-10-03T22:32:31.261Z,6.81
2018-10-03T22:35:36.941Z,6.83
2018-10-03T22:38:45.049Z,6.81
2018-10-03T22:41:52.007Z,6.66
2018-10-03T22:44:57.814Z,6.60
2018-10-03T22:48:10.642Z,6.65
2018-10-03T22:51:16.779Z,6.63
2018-10-03T22:54:24.263Z,6.61
2018-10-03T22:57:30.022Z,6.60
2018-10-03T23:00:35.778Z,6.57
2018-10-03T23:03:41.814Z,6.55
2018-10-03T23:06:47.478Z,6.56
2018-10-03T23:09:53.141Z,6.50
2018-10-03T23:12:58.148Z,6.46
2018-10-03T23:16:04.245Z,6.39
2018-10-03T23:19:09.997Z,6.36
2018-10-03T23:22:15.850Z,6.38
2018-10-03T23:25:20.989Z,6.36
2018-10-03T23:28:27.986Z,6.31
2018-10-03T23:31:34.201Z,6.26
2018-10-03T23:34:40.079Z,6.18
2018-10-03T23:37:46.145Z,6.23
2018-10-03T23:40:56.599Z,6.23
2018-10-03T23:44:02.444Z,6.17
2018-10-03T23:47:15.306Z,6.21
2018-10-03T23:50:21.249Z,6.05
2018-10-03T23:53:33.133Z,6.09
2018-10-03T23:56:39.418Z,6.10
2018-10-03T23:59:45.561Z,6.07
